Time;durP1;ratioP1;P1;durP2;ratioP2;P2;SDS_P1;SDS_P2;PMS_P1;PMS_P2;Temp;Humidity;BMP_temperature;BMP_pressure;BME280_temperature;BME280_humidity;BME280_pressure;Samples;Min_cycle;Max_cycle;Signal;HPM_P1;HPM_P2
2023/07/21 00:02:46;;;;;;;6.10;3.75;;;;;;;23.77;41.78;94901.09;6114404;28;109174;-61
2023/07/21 00:05:51;;;;;;;4.45;3.55;;;;;;;23.99;41.33;94898.19;6107006;28;109067;-58
2023/07/21 00:08:54;;;;;;;4.63;4.10;;;;;;;24.00;41.20;94904.34;6115275;28;109165;-58
2023/07/21 00:11:57;;;;;;;4.07;3.67;;;;;;;23.48;42.32;94893.78;6133366;28;109135;-58
2023/07/21 00:15:01;;;;;;;4.07;3.58;;;;;;;23.86;41.66;94891.19;6119680;28;109162;-58
2023/07/21 00:18:04;;;;;;;4.50;3.90;;;;;;;24.01;41.01;94882.63;6118052;28;109158;-58
2023/07/21 00:21:09;;;;;;;5.40;4.10;;;;;;;23.46;41.74;94885.31;6133951;28;112346;-58
2023/07/21 00:24:13;;;;;;;4.63;3.90;;;;;;;23.70;41.51;94880.25;6118973;28;109300;-58
2023/07/21 00:27:17;;;;;;;4.70;3.70;;;;;;;23.84;40.64;94886.13;6103220;28;111289;-58
2023/07/21 00:30:22;;;;;;;3.70;3.30;;;;;;;23.86;40.15;94867.91;6120277;28;109082;-59
2023/07/21 00:33:25;;;;;;;4.10;3.70;;;;;;;23.97;40.78;94871.00;6121163;28;109306;-58
2023/07/21 00:36:30;;;;;;;4.40;3.50;;;;;;;24.00;40.33;94858.91;6120069;28;109311;-58
2023/07/21 00:39:33;;;;;;;4.70;3.80;;;;;;;23.59;41.58;94861.09;6108181;28;109631;-59
2023/07/21 00:42:37;;;;;;;4.53;3.60;;;;;;;23.32;42.01;94853.47;6135419;28;109569;-58
2023/07/21 00:45:40;;;;;;;3.73;3.40;;;;;;;23.76;40.28;94868.25;6121471;28;109138;-58
2023/07/21 00:48:44;;;;;;;4.00;3.60;;;;;;;23.98;39.99;94866.44;6117861;28;109199;-58
2023/07/21 00:51:48;;;;;;;4.00;3.45;;;;;;;24.02;40.24;94873.50;6111796;28;109884;-58
2023/07/21 00:54:52;;;;;;;4.05;3.65;;;;;;;24.01;40.04;94868.47;6111849;28;109160;-58
2023/07/21 00:57:56;;;;;;;4.80;3.67;;;;;;;23.96;40.42;94865.97;6112077;28;109192;-58
2023/07/21 01:00:59;;;;;;;4.75;3.70;;;;;;;24.03;39.89;94859.06;6111158;28;109682;-58
2023/07/21 01:04:02;;;;;;;3.90;3.50;;;;;;;23.98;40.01;94855.75;6134335;28;109512;-58
2023/07/21 01:07:09;;;;;;;3.70;3.30;;;;;;;24.00;39.71;94848.22;6118103;28;109835;-58
2023/07/21 01:10:13;;;;;;;4.20;3.80;;;;;;;24.05;39.55;94848.84;6122724;28;110143;-59
2023/07/21 01:13:18;;;;;;;3.47;3.17;;;;;;;24.01;39.18;94855.91;6125319;28;109228;-58
2023/07/21 01:16:23;;;;;;;4.60;3.65;;;;;;;24.02;39.78;94840.66;6127297;28;109452;-59
2023/07/21 01:19:28;;;;;;;3.72;3.30;;;;;;;23.97;40.42;94832.78;6129704;28;109176;-59
2023/07/21 01:22:37;;;;;;;4.27;3.50;;;;;;;23.94;40.27;94828.09;6129627;28;109251;-59
2023/07/21 01:25:43;;;;;;;4.45;3.58;;;;;;;23.94;40.54;94830.78;6113105;28;109629;-59
2023/07/21 01:28:47;;;;;;;4.60;3.40;;;;;;;23.93;40.52;94826.53;6099266;28;109435;-58
2023/07/21 01:31:52;;;;;;;5.60;3.60;;;;;;;23.97;40.12;94833.56;6128062;28;108872;-59
2023/07/21 01:34:57;;;;;;;5.88;3.90;;;;;;;23.98;40.70;94829.78;6119162;28;109294;-59
2023/07/21 01:38:01;;;;;;;5.10;3.60;;;;;;;23.90;40.63;94818.06;6133786;28;109716;-58
2023/07/21 01:41:07;;;;;;;4.00;3.60;;;;;;;23.93;40.06;94832.66;6111091;28;109375;-59
2023/07/21 01:44:10;;;;;;;4.70;3.67;;;;;;;23.97;39.92;94852.28;6134216;28;110263;-58
2023/07/21 01:47:14;;;;;;;4.25;3.47;;;;;;;23.96;39.51;94858.75;6113490;28;112152;-59
2023/07/21 01:50:19;;;;;;;4.20;3.60;;;;;;;23.95;39.77;94861.75;6110801;28;109645;-58
2023/07/21 01:53:28;;;;;;;4.03;3.63;;;;;;;23.92;39.37;94862.38;6110983;28;108823;-59
2023/07/21 01:56:39;;;;;;;4.80;3.60;;;;;;;23.92;39.37;94873.84;6105233;28;109421;-64
2023/07/21 01:59:47;;;;;;;4.05;3.65;;;;;;;23.96;39.12;94874.00;6121367;28;110591;-58
2023/07/21 02:02:52;;;;;;;3.95;3.55;;;;;;;23.99;39.32;94876.00;6128864;28;110302;-58
2023/07/21 02:05:55;;;;;;;5.90;3.90;;;;;;;23.92;39.68;94875.75;6117557;28;110141;-58
2023/07/21 02:08:58;;;;;;;4.20;3.80;;;;;;;24.05;40.79;94877.44;6105879;28;109335;-63
2023/07/21 02:12:03;;;;;;;7.30;4.30;;;;;;;24.54;41.88;94891.19;6119062;28;109283;-63
2023/07/21 02:15:07;;;;;;;5.28;3.97;;;;;;;24.89;41.00;94889.06;6132877;28;109267;-62
2023/07/21 02:18:11;;;;;;;4.82;4.20;;;;;;;25.08;42.22;94887.47;6115734;28;109080;-59
2023/07/21 02:21:14;;;;;;;4.55;3.53;;;;;;;25.30;40.83;94880.97;6119074;28;109959;-59
2023/07/21 02:24:17;;;;;;;4.63;4.10;;;;;;;25.43;41.29;94881.81;6115562;28;109162;-59
2023/07/21 02:27:22;;;;;;;5.10;4.10;;;;;;;25.55;41.63;94878.41;6122183;28;109141;-59
2023/07/21 02:30:25;;;;;;;3.77;3.40;;;;;;;25.61;41.75;94883.22;6119788;28;109600;-62
2023/07/21 02:33:29;;;;;;;4.60;4.20;;;;;;;25.64;41.82;94879.06;6103552;28;109235;-59
2023/07/21 02:36:32;;;;;;;4.47;3.97;;;;;;;25.69;42.20;94876.97;6121919;28;109300;-59
2023/07/21 02:39:35;;;;;;;5.60;4.50;;;;;;;25.74;42.38;94880.56;6122633;28;109258;-59
2023/07/21 02:42:39;;;;;;;6.07;3.90;;;;;;;25.78;42.43;94871.50;6108186;28;109658;-64
2023/07/21 02:45:49;;;;;;;4.57;4.17;;;;;;;25.75;43.10;94871.41;6128716;28;109144;-60
2023/07/21 02:48:52;;;;;;;5.10;4.63;;;;;;;25.74;43.18;94875.19;6115788;28;109247;-59
2023/07/21 02:51:55;;;;;;;4.93;4.53;;;;;;;25.78;43.21;94871.50;6133311;28;109166;-59
2023/07/21 02:54:59;;;;;;;5.37;4.23;;;;;;;25.83;43.84;94878.53;6108308;28;109333;-59
2023/07/21 02:58:03;;;;;;;4.63;4.23;;;;;;;25.85;43.94;94881.66;6115553;28;109269;-59
2023/07/21 03:01:06;;;;;;;6.77;5.17;;;;;;;25.89;44.47;94877.22;6119154;28;108895;-61
2023/07/21 03:04:09;;;;;;;5.60;4.63;;;;;;;25.90;44.67;94871.53;6115904;28;109169;-59
2023/07/21 03:07:12;;;;;;;6.57;5.97;;;;;;;25.75;45.46;94872.19;6117057;28;109161;-60
2023/07/21 03:10:16;;;;;;;18.10;16.90;;;;;;;25.87;45.76;94880.22;6127633;28;112253;-60
2023/07/21 03:13:21;;;;;;;21.17;19.67;;;;;;;25.93;46.35;94880.81;6121741;28;109163;-59
2023/07/21 03:16:24;;;;;;;21.80;20.07;;;;;;;25.97;46.93;94884.38;6107998;28;109102;-59
2023/07/21 03:19:29;;;;;;;16.97;15.50;;;;;;;26.01;47.02;94879.16;6125912;28;110079;-60
2023/07/21 03:22:32;;;;;;;13.57;12.27;;;;;;;26.03;46.63;94876.91;6121864;28;109080;-59
2023/07/21 03:25:37;;;;;;;12.10;11.10;;;;;;;26.07;47.12;94892.00;6125589;28;108914;-61
2023/07/21 03:28:42;;;;;;;11.53;10.43;;;;;;;26.08;46.84;94895.47;6117704;28;109210;-59
2023/07/21 03:31:45;;;;;;;8.20;7.40;;;;;;;26.01;46.20;94896.03;6136131;28;109131;-59
2023/07/21 03:34:51;;;;;;;8.73;7.83;;;;;;;25.99;46.53;94892.88;6114671;28;109328;-59
2023/07/21 03:37:54;;;;;;;8.40;7.80;;;;;;;25.93;46.37;94904.94;6114079;28;110113;-59
2023/07/21 03:41:01;;;;;;;7.23;5.87;;;;;;;25.67;46.86;94903.31;6103952;28;109153;-59
2023/07/21 03:44:07;;;;;;;9.17;5.80;;;;;;;25.65;45.96;94902.88;6114801;28;109536;-59
2023/07/21 03:47:11;;;;;;;5.53;5.03;;;;;;;25.73;46.40;94911.94;6136018;28;109626;-59
2023/07/21 03:50:14;;;;;;;7.30;4.90;;;;;;;25.17;47.98;94910.72;6124747;28;109167;-59
2023/07/21 03:53:17;;;;;;;7.40;5.00;;;;;;;25.17;47.60;94916.84;6111378;28;109132;-59
2023/07/21 03:56:36;;;;;;;8.40;5.93;;;;;;;25.27;47.65;94915.66;6115743;28;109156;-59
2023/07/21 03:59:41;;;;;;;6.30;4.97;;;;;;;25.38;46.74;94916.88;6117605;28;109318;-59
2023/07/21 04:02:45;;;;;;;5.57;4.83;;;;;;;25.70;46.40;94925.97;6114768;28;109132;-59
2023/07/21 04:05:48;;;;;;;6.53;5.77;;;;;;;25.85;46.21;94924.56;6134972;28;109446;-60
2023/07/21 04:08:51;;;;;;;9.80;6.10;;;;;;;25.94;47.03;94936.78;6118715;28;110184;-60
2023/07/21 04:11:54;;;;;;;11.70;9.67;;;;;;;26.03;47.64;94939.38;6125227;28;109157;-60
2023/07/21 04:14:59;;;;;;;11.07;9.27;;;;;;;26.10;46.33;94941.53;6126924;28;109129;-60
2023/07/21 04:18:02;;;;;;;8.90;6.60;;;;;;;26.11;46.60;94945.75;6122960;28;109470;-60
2023/07/21 04:21:05;;;;;;;7.33;6.70;;;;;;;26.13;47.89;94941.63;6117678;28;109310;-60
2023/07/21 04:24:08;;;;;;;7.53;6.40;;;;;;;26.16;46.67;94940.19;6109920;28;110245;-66
2023/07/21 04:27:11;;;;;;;12.93;6.40;;;;;;;26.15;48.06;94947.44;6109462;28;109053;-60
2023/07/21 04:30:16;;;;;;;8.20;6.67;;;;;;;26.16;47.42;94956.28;6116765;28;110251;-60
2023/07/21 04:33:19;;;;;;;8.90;7.50;;;;;;;26.07;47.35;94958.28;6113566;28;109380;-60
2023/07/21 04:36:22;;;;;;;8.17;5.77;;;;;;;26.13;47.28;94948.91;6103818;28;109142;-60
2023/07/21 04:39:26;;;;;;;7.97;5.97;;;;;;;26.16;46.88;94945.53;6112423;28;109155;-64
2023/07/21 04:42:29;;;;;;;7.23;5.80;;;;;;;26.17;46.67;94939.84;6089807;28;110239;-64
2023/07/21 04:45:35;;;;;;;8.17;5.90;;;;;;;26.19;46.77;94940.28;6097825;28;109128;-64
2023/07/21 04:48:38;;;;;;;7.73;5.30;;;;;;;26.20;46.46;94939.16;6104415;28;110088;-64
2023/07/21 04:51:41;;;;;;;8.53;6.30;;;;;;;26.22;46.45;94941.53;6113808;28;111793;-64
2023/07/21 04:54:44;;;;;;;5.60;5.10;;;;;;;26.22;46.18;94934.28;6113084;28;109249;-64
2023/07/21 04:57:47;;;;;;;8.90;5.33;;;;;;;26.23;46.11;94933.16;6112518;28;109128;-64
2023/07/21 05:00:54;;;;;;;7.33;5.50;;;;;;;26.24;46.11;94933.94;6112591;28;109328;-66
2023/07/21 05:03:58;;;;;;;6.50;4.93;;;;;;;26.24;46.31;94937.41;6136969;28;109529;-64
2023/07/21 05:07:01;;;;;;;6.40;5.30;;;;;;;26.25;46.31;94933.59;6117757;28;108992;-64
2023/07/21 05:10:05;;;;;;;5.93;5.20;;;;;;;26.27;46.49;94938.63;6103376;28;109261;-64
2023/07/21 05:13:08;;;;;;;8.10;5.77;;;;;;;26.27;46.36;94942.09;6112683;28;109322;-64
2023/07/21 05:16:13;;;;;;;6.30;5.10;;;;;;;26.30;46.43;94939.84;6112764;28;109167;-63
2023/07/21 05:19:16;;;;;;;6.07;5.20;;;;;;;26.32;46.10;94937.63;6112766;28;109279;-63
2023/07/21 05:22:19;;;;;;;5.57;5.07;;;;;;;26.32;46.39;94951.03;6102071;28;109278;-64
2023/07/21 05:25:23;;;;;;;5.50;5.00;;;;;;;26.33;45.90;94955.28;6116983;28;109192;-64
2023/07/21 05:28:26;;;;;;;5.53;4.87;;;;;;;26.32;45.99;94941.06;6135941;28;109177;-64
2023/07/21 05:31:30;;;;;;;7.20;5.03;;;;;;;26.33;45.71;94950.69;6124525;28;109148;-63
2023/07/21 05:34:33;;;;;;;5.20;4.80;;;;;;;26.36;45.73;94949.22;6101794;28;109688;-63
2023/07/21 05:37:36;;;;;;;5.77;5.27;;;;;;;26.39;45.89;94948.59;6112491;28;109617;-64
2023/07/21 05:40:40;;;;;;;5.10;4.17;;;;;;;26.42;45.93;94946.00;6111592;28;109161;-64
2023/07/21 05:43:43;;;;;;;5.50;5.00;;;;;;;26.43;45.99;94949.47;6108658;28;109136;-64
2023/07/21 05:46:47;;;;;;;4.90;4.43;;;;;;;26.52;45.98;94952.81;6106097;28;109130;-64
2023/07/21 05:49:50;;;;;;;7.40;4.83;;;;;;;26.54;45.92;94953.25;6112211;28;109800;-64
2023/07/21 05:52:53;;;;;;;5.10;4.60;;;;;;;26.60;45.84;94959.97;6136028;28;109325;-64
2023/07/21 05:55:57;;;;;;;5.50;4.63;;;;;;;26.64;45.59;94960.91;6122801;28;109235;-64
2023/07/21 05:59:00;;;;;;;5.23;4.83;;;;;;;26.69;45.47;94959.88;6136017;28;109599;-65
2023/07/21 06:02:06;;;;;;;5.37;4.57;;;;;;;26.72;45.72;94956.53;6135838;28;109159;-64
2023/07/21 06:05:09;;;;;;;5.40;5.00;;;;;;;26.76;45.68;94952.84;6135012;28;109350;-64
2023/07/21 06:08:13;;;;;;;5.03;4.63;;;;;;;26.80;45.07;94952.94;6103038;28;109749;-64
2023/07/21 06:11:16;;;;;;;7.00;6.07;;;;;;;26.84;45.38;94957.28;6115537;28;108860;-64
2023/07/21 06:14:19;;;;;;;7.87;7.10;;;;;;;26.86;46.11;94956.94;6116297;28;109351;-64
2023/07/21 06:17:25;;;;;;;7.57;6.60;;;;;;;26.89;45.92;94961.66;6116274;28;109992;-64
2023/07/21 06:20:28;;;;;;;11.30;8.90;;;;;;;26.87;47.18;94961.97;6107900;28;110214;-64
2023/07/21 06:23:31;;;;;;;10.67;7.60;;;;;;;26.90;47.23;94954.38;6115846;28;109081;-65
2023/07/21 06:26:34;;;;;;;11.13;8.30;;;;;;;26.85;47.85;94950.78;6115326;28;109154;-65
2023/07/21 06:29:37;;;;;;;8.17;7.03;;;;;;;26.90;47.50;94951.69;6111037;28;109112;-65
2023/07/21 06:32:42;;;;;;;11.90;8.90;;;;;;;26.89;48.10;94944.78;6112154;28;109101;-64
2023/07/21 06:35:45;;;;;;;13.00;9.03;;;;;;;26.85;48.25;94940.06;6115455;28;109163;-64
2023/07/21 06:38:48;;;;;;;17.37;7.97;;;;;;;26.52;49.41;94936.72;6115750;28;109413;-65
2023/07/21 06:41:51;;;;;;;10.30;7.33;;;;;;;26.46;49.06;94938.06;6105085;28;111432;-64
2023/07/21 06:44:54;;;;;;;12.87;7.67;;;;;;;26.68;49.24;94934.94;6115801;28;109178;-65
2023/07/21 06:47:59;;;;;;;10.73;7.30;;;;;;;26.69;49.21;94936.50;6115555;28;109261;-64
2023/07/21 06:51:02;;;;;;;15.00;7.83;;;;;;;26.78;49.56;94942.53;6115291;28;109437;-64
2023/07/21 06:54:07;;;;;;;8.60;7.57;;;;;;;26.89;49.63;94950.13;6104876;28;109524;-64
2023/07/21 06:57:11;;;;;;;12.90;8.43;;;;;;;27.04;49.46;94949.41;6115607;28;109926;-65
2023/07/21 07:00:16;;;;;;;8.50;7.30;;;;;;;27.07;48.72;94951.44;6115419;28;109305;-64
2023/07/21 07:03:20;;;;;;;11.43;8.20;;;;;;;27.04;48.85;94949.41;6111169;28;109282;-64
2023/07/21 07:06:23;;;;;;;10.57;7.77;;;;;;;27.02;48.45;94944.38;6117194;28;109241;-64
2023/07/21 07:09:26;;;;;;;11.33;7.43;;;;;;;27.06;48.92;94941.81;6139374;28;109116;-66
2023/07/21 07:12:30;;;;;;;10.10;7.17;;;;;;;27.05;48.90;94940.22;6138651;28;110262;-63
2023/07/21 07:15:33;;;;;;;12.80;7.17;;;;;;;27.14;48.88;94932.81;6128330;28;109230;-65
2023/07/21 07:18:37;;;;;;;10.17;6.57;;;;;;;27.21;47.96;94940.28;6139406;28;111297;-64
2023/07/21 07:21:41;;;;;;;12.90;7.50;;;;;;;27.30;48.04;94939.06;6138643;28;108852;-64
2023/07/21 07:24:44;;;;;;;8.77;6.13;;;;;;;27.45;48.09;94932.97;6139388;28;109239;-65
2023/07/21 07:27:47;;;;;;;8.83;7.67;;;;;;;27.34;47.57;94929.19;6123128;28;109562;-64
2023/07/21 07:30:50;;;;;;;7.73;6.63;;;;;;;27.40;47.82;94933.22;6138710;28;109627;-65
2023/07/21 07:33:55;;;;;;;8.80;6.57;;;;;;;27.46;47.61;94931.84;6139266;28;109296;-65
2023/07/21 07:36:59;;;;;;;11.53;8.00;;;;;;;27.51;47.29;94928.13;6138396;28;109152;-64
2023/07/21 07:40:05;;;;;;;9.80;7.90;;;;;;;27.62;46.58;94931.09;6128774;28;110383;-64
2023/07/21 07:43:08;;;;;;;8.70;7.17;;;;;;;27.71;46.88;94929.03;6127889;28;109089;-65
2023/07/21 07:46:11;;;;;;;10.73;8.23;;;;;;;27.79;46.96;94922.72;6114701;28;109108;-64
2023/07/21 07:49:16;;;;;;;8.83;7.93;;;;;;;27.89;45.99;94933.00;6107275;28;109200;-64
2023/07/21 07:52:19;;;;;;;8.67;6.97;;;;;;;27.91;45.94;94924.59;6112282;28;109160;-67
2023/07/21 07:55:22;;;;;;;10.87;7.33;;;;;;;27.92;45.82;94920.75;6114596;28;110698;-65
2023/07/21 07:58:28;;;;;;;10.37;8.10;;;;;;;27.94;46.39;94930.06;6114223;28;109159;-65
2023/07/21 08:01:31;;;;;;;10.53;8.20;;;;;;;27.91;46.35;94930.75;6103658;28;109238;-65
2023/07/21 08:04:35;;;;;;;9.67;7.50;;;;;;;27.93;45.96;94922.31;6114576;28;109390;-65
2023/07/21 08:07:39;;;;;;;10.20;6.90;;;;;;;27.95;45.25;94920.84;6114160;28;109011;-65
2023/07/21 08:10:42;;;;;;;9.50;6.97;;;;;;;27.89;45.61;94924.94;6114641;28;110199;-71
2023/07/21 08:13:45;;;;;;;9.93;6.90;;;;;;;27.97;45.94;94926.66;6126106;28;109167;-71
2023/07/21 08:16:48;;;;;;;9.57;6.90;;;;;;;28.13;45.51;94936.66;6138297;28;109267;-71
2023/07/21 08:19:53;;;;;;;7.60;6.80;;;;;;;28.12;44.95;94927.03;6138522;28;110159;-71
2023/07/21 08:22:56;;;;;;;7.53;6.77;;;;;;;28.08;45.47;94920.78;6133139;28;110151;-70
2023/07/21 08:25:59;;;;;;;7.60;6.73;;;;;;;28.03;45.23;94925.25;6123469;28;109230;-70
2023/07/21 08:29:04;;;;;;;10.93;6.57;;;;;;;28.18;45.38;94939.06;6115964;28;108771;-71
2023/07/21 08:32:08;;;;;;;9.77;5.87;;;;;;;28.09;44.16;94925.03;6113174;28;109250;-71
2023/07/21 08:35:12;;;;;;;7.23;6.07;;;;;;;28.31;44.51;94927.88;6103690;28;109952;-71
2023/07/21 08:38:15;;;;;;;6.07;5.47;;;;;;;28.10;45.21;94926.59;6113435;28;108996;-71
2023/07/21 08:41:20;;;;;;;6.90;6.13;;;;;;;27.80;45.19;94921.59;6113706;28;109249;-71
2023/07/21 08:44:25;;;;;;;8.00;5.70;;;;;;;28.05;45.01;94917.63;6112742;28;109295;-71
2023/07/21 08:47:28;;;;;;;9.77;6.43;;;;;;;28.20;44.72;94920.66;6102488;28;109254;-71
2023/07/21 08:50:35;;;;;;;6.67;6.03;;;;;;;28.27;45.24;94923.53;6113485;28;109660;-71
2023/07/21 08:53:38;;;;;;;7.20;6.30;;;;;;;28.41;45.15;94923.88;6113394;28;109290;-70
2023/07/21 08:56:41;;;;;;;10.27;6.07;;;;;;;28.38;44.65;94921.88;6112355;28;109392;-67
2023/07/21 08:59:45;;;;;;;10.10;7.20;;;;;;;28.38;44.65;94916.47;6104606;28;109151;-70
2023/07/21 09:02:48;;;;;;;8.70;7.90;;;;;;;28.35;44.98;94922.56;6113121;28;109057;-70
2023/07/21 09:05:55;;;;;;;9.40;8.20;;;;;;;28.38;44.97;94926.47;6113287;28;109274;-70
2023/07/21 09:08:59;;;;;;;9.10;8.03;;;;;;;28.41;45.25;94921.19;6125279;28;109889;-70
2023/07/21 09:12:04;;;;;;;7.73;6.93;;;;;;;28.45;44.76;94922.03;6130863;28;109124;-70
2023/07/21 09:15:09;;;;;;;9.23;7.20;;;;;;;28.46;44.15;94912.88;6112370;28;110074;-70
2023/07/21 09:18:12;;;;;;;7.13;6.20;;;;;;;28.49;44.64;94917.53;6112968;28;109267;-70
2023/07/21 09:21:20;;;;;;;11.73;6.77;;;;;;;28.50;44.23;94919.09;6102865;28;108814;-71
2023/07/21 09:24:23;;;;;;;9.13;7.10;;;;;;;28.46;43.86;94909.41;6112761;28;109270;-71
2023/07/21 09:27:27;;;;;;;10.13;6.37;;;;;;;28.56;44.19;94909.66;6111779;28;109258;-71
2023/07/21 09:30:30;;;;;;;8.83;6.13;;;;;;;28.60;44.04;94907.81;6112778;28;109281;-71
2023/07/21 09:33:37;;;;;;;8.53;7.10;;;;;;;28.62;43.88;94904.75;6102438;28;109324;-71
2023/07/21 09:36:46;;;;;;;8.20;7.50;;;;;;;28.59;44.38;94895.47;6113256;28;109632;-71
2023/07/21 09:39:53;;;;;;;9.53;6.63;;;;;;;28.57;44.31;94895.06;6112611;28;109395;-71
2023/07/21 09:42:56;;;;;;;8.07;6.60;;;;;;;28.44;44.46;94901.66;6104090;28;110219;-70
2023/07/21 09:46:01;;;;;;;8.73;7.93;;;;;;;28.46;45.14;94896.72;6111077;28;109258;-72
2023/07/21 09:49:19;;;;;;;7.90;7.17;;;;;;;28.56;44.26;94893.50;6135140;28;109361;-72
2023/07/21 09:52:24;;;;;;;7.90;6.80;;;;;;;28.54;44.36;94889.56;6136272;28;109413;-72
2023/07/21 09:55:32;;;;;;;7.77;7.17;;;;;;;28.50;44.44;94886.03;6122471;28;109303;-71
2023/07/21 09:58:36;;;;;;;10.70;7.63;;;;;;;28.53;44.43;94886.09;6112025;28;109352;-72
2023/07/21 10:01:40;;;;;;;9.07;8.17;;;;;;;28.50;44.85;94886.78;6112143;28;109117;-71
2023/07/21 10:04:44;;;;;;;10.43;8.03;;;;;;;28.46;44.64;94885.94;6112736;28;108848;-71
2023/07/21 10:07:50;;;;;;;9.50;8.20;;;;;;;28.47;45.05;94886.72;6101755;28;109262;-71
2023/07/21 10:10:53;;;;;;;8.50;7.80;;;;;;;28.59;44.61;94894.69;6111925;28;109388;-71
2023/07/21 10:13:56;;;;;;;8.40;7.47;;;;;;;28.62;44.57;94883.22;6111966;28;109154;-71
2023/07/21 10:17:01;;;;;;;7.53;6.83;;;;;;;28.60;44.52;94880.88;6103326;28;109649;-69
2023/07/21 10:20:11;;;;;;;8.80;7.90;;;;;;;28.61;44.35;94876.28;6111420;28;109311;-71
2023/07/21 10:23:18;;;;;;;8.47;7.67;;;;;;;28.59;44.81;94879.31;6123783;28;109122;-71
2023/07/21 10:26:21;;;;;;;7.33;6.63;;;;;;;28.63;43.88;94882.88;6127251;28;110102;-71
2023/07/21 10:29:24;;;;;;;10.30;7.50;;;;;;;28.59;43.93;94879.31;6101286;28;111381;-61
2023/07/21 10:32:27;;;;;;;7.77;6.57;;;;;;;28.60;43.67;94875.50;6111834;28;109189;-60
2023/07/21 10:35:37;;;;;;;6.97;6.27;;;;;;;28.57;44.09;94868.13;6111689;28;109236;-61
2023/07/21 10:38:43;;;;;;;7.23;6.57;;;;;;;28.52;44.35;94879.16;6126743;28;109092;-61
2023/07/21 10:41:47;;;;;;;7.50;6.30;;;;;;;28.52;44.36;94873.75;6125354;28;109294;-60
2023/07/21 10:44:50;;;;;;;7.13;6.43;;;;;;;28.50;44.30;94870.66;6135915;28;110276;-60
2023/07/21 10:47:53;;;;;;;6.53;5.90;;;;;;;28.56;43.51;94861.19;6126859;28;109302;-61
2023/07/21 10:50:58;;;;;;;7.60;6.50;;;;;;;28.57;43.14;94860.03;6106580;28;109345;-61
2023/07/21 10:54:03;;;;;;;9.97;6.53;;;;;;;28.55;43.05;94851.50;6108493;28;109296;-60
2023/07/21 10:57:08;;;;;;;6.87;6.20;;;;;;;28.51;43.10;94858.75;6116129;28;109219;-61
2023/07/21 11:00:15;;;;;;;6.77;6.10;;;;;;;28.55;43.29;94856.91;6139412;28;109147;-61
2023/07/21 11:03:19;;;;;;;7.03;6.30;;;;;;;28.53;42.52;94851.09;6118990;28;108791;-61
2023/07/21 11:06:23;;;;;;;6.27;5.63;;;;;;;28.51;42.94;94850.66;6115144;28;109014;-60
2023/07/21 11:09:31;;;;;;;7.90;6.27;;;;;;;28.48;43.44;94846.00;6115433;28;109153;-61
2023/07/21 11:12:34;;;;;;;6.50;5.93;;;;;;;28.50;43.07;94845.63;6115523;28;109357;-61
2023/07/21 11:15:38;;;;;;;6.70;6.00;;;;;;;28.46;42.95;94844.78;6104916;28;110109;-61
2023/07/21 11:18:42;;;;;;;7.53;6.10;;;;;;;28.40;43.18;94836.19;6114464;28;109280;-60
2023/07/21 11:21:46;;;;;;;8.33;6.93;;;;;;;28.39;43.27;94833.81;6115215;28;109145;-61
2023/07/21 11:25:11;;;;;;;8.07;6.03;;;;;;;28.45;42.67;94843.19;6109997;28;109317;-61
2023/07/21 11:28:14;;;;;;;6.90;5.47;;;;;;;28.49;42.15;94836.78;6113907;28;110334;-61
2023/07/21 11:31:18;;;;;;;9.93;5.80;;;;;;;28.55;41.49;94834.56;6114967;28;109072;-61
2023/07/21 11:34:22;;;;;;;7.10;5.30;;;;;;;28.55;41.33;94840.75;6132008;28;109162;-60
2023/07/21 11:37:26;;;;;;;9.43;5.70;;;;;;;28.54;41.33;94831.09;6128089;28;109151;-61
2023/07/21 11:40:33;;;;;;;6.60;6.00;;;;;;;28.53;41.45;94828.78;6139025;28;109293;-60
2023/07/21 11:43:49;;;;;;;6.80;6.10;;;;;;;28.55;40.94;94824.59;6138579;28;109593;-61
2023/07/21 11:46:57;;;;;;;7.60;6.37;;;;;;;28.53;40.94;94810.69;6138489;28;109149;-60
2023/07/21 11:50:00;;;;;;;8.90;6.13;;;;;;;28.49;41.19;94809.84;6127493;28;109311;-60
2023/07/21 11:53:06;;;;;;;7.03;6.33;;;;;;;28.49;41.42;94807.16;6138270;28;109316;-61
2023/07/21 11:56:11;;;;;;;7.67;5.87;;;;;;;28.49;40.95;94807.16;6133075;28;109129;-61
2023/07/21 11:59:14;;;;;;;6.60;5.73;;;;;;;28.48;40.77;94800.22;6120956;28;110921;-61
2023/07/21 12:02:17;;;;;;;11.27;6.00;;;;;;;28.47;40.37;94804.03;6138142;28;109254;-61
2023/07/21 12:05:20;;;;;;;8.00;5.80;;;;;;;28.47;40.06;94804.03;6137077;28;109077;-61
2023/07/21 12:08:24;;;;;;;7.90;5.50;;;;;;;28.43;40.73;94802.38;6137832;28;109249;-61
2023/07/21 12:11:28;;;;;;;7.40;5.57;;;;;;;28.41;41.31;94810.81;6127301;28;109442;-61
2023/07/21 12:14:31;;;;;;;8.27;6.37;;;;;;;28.37;41.58;94807.25;6122053;28;109309;-61
2023/07/21 12:17:34;;;;;;;7.40;6.70;;;;;;;28.38;41.11;94795.34;6114222;28;109123;-61
2023/07/21 12:20:37;;;;;;;9.73;6.47;;;;;;;28.43;40.52;94795.09;6113352;28;109127;-62
2023/07/21 12:23:41;;;;;;;8.10;6.10;;;;;;;28.40;39.84;94787.72;6103854;28;111677;-61
2023/07/21 12:26:46;;;;;;;8.67;6.57;;;;;;;28.40;40.67;94790.41;6113071;28;110130;-61
2023/07/21 12:29:49;;;;;;;8.43;6.83;;;;;;;28.38;40.51;94786.50;6113752;28;109044;-60
2023/07/21 12:32:53;;;;;;;9.00;7.30;;;;;;;28.35;40.34;94786.06;6110744;28;109170;-61
2023/07/21 12:35:57;;;;;;;7.60;6.87;;;;;;;28.37;40.08;94796.47;6133149;28;108754;-61
2023/07/21 12:39:02;;;;;;;8.97;7.63;;;;;;;28.40;39.89;94790.41;6126709;28;109355;-61
2023/07/21 12:42:08;;;;;;;7.60;6.90;;;;;;;28.44;40.01;94785.88;6113722;28;109095;-61
2023/07/21 12:45:11;;;;;;;7.87;7.17;;;;;;;28.44;40.00;94783.19;6102617;28;110107;-62
2023/07/21 12:48:15;;;;;;;7.87;7.07;;;;;;;28.46;40.18;94774.78;6117571;28;109138;-60
2023/07/21 12:51:18;;;;;;;8.40;7.27;;;;;;;28.45;40.25;94783.97;6137783;28;109643;-64
2023/07/21 12:54:21;;;;;;;9.80;8.50;;;;;;;28.43;39.94;94778.16;6124779;28;109130;-65
2023/07/21 12:57:25;;;;;;;8.60;7.80;;;;;;;28.45;40.82;94771.28;6101758;28;112539;-66
2023/07/21 13:00:28;;;;;;;9.43;7.40;;;;;;;28.43;40.20;94770.09;6113314;28;110096;-64
2023/07/21 13:03:32;;;;;;;9.50;7.67;;;;;;;28.40;40.36;94779.66;6113040;28;109269;-64
2023/07/21 13:06:35;;;;;;;9.90;7.43;;;;;;;28.39;39.50;94783.44;6112904;28;109207;-64
2023/07/21 13:09:39;;;;;;;8.83;7.43;;;;;;;28.41;38.71;94781.22;6103447;28;109300;-64
2023/07/21 13:12:43;;;;;;;9.73;7.50;;;;;;;28.44;39.12;94785.88;6113384;28;109131;-64
2023/07/21 13:15:46;;;;;;;10.13;7.37;;;;;;;28.43;38.18;94765.47;6135912;28;109411;-64
2023/07/21 13:18:49;;;;;;;9.20;6.57;;;;;;;28.44;38.87;94785.88;6126923;28;110230;-65
2023/07/21 13:21:53;;;;;;;7.97;6.57;;;;;;;28.45;38.20;94776.66;6135365;28;109103;-65
2023/07/21 13:24:56;;;;;;;8.27;7.40;;;;;;;28.45;38.72;94773.97;6120516;28;109138;-64
2023/07/21 13:28:01;;;;;;;8.53;6.97;;;;;;;28.47;39.06;94779.03;6112565;28;108766;-64
2023/07/21 13:31:04;;;;;;;9.10;6.83;;;;;;;28.49;39.22;94777.53;6077714;28;109495;-64
2023/07/21 13:34:08;;;;;;;8.20;6.50;;;;;;;28.48;38.81;94770.59;6106046;28;109198;-64
2023/07/21 13:37:11;;;;;;;7.60;6.40;;;;;;;28.47;39.10;94768.28;6136834;28;109234;-64
2023/07/21 13:40:14;;;;;;;12.07;7.77;;;;;;;28.51;38.25;94769.13;6136120;28;109208;-64
2023/07/21 13:43:19;;;;;;;10.27;7.10;;;;;;;28.53;37.64;94772.22;6126424;28;109375;-64
2023/07/21 13:46:23;;;;;;;10.73;7.00;;;;;;;28.57;38.07;94775.78;6136464;28;109184;-65
2023/07/21 13:49:28;;;;;;;9.00;6.57;;;;;;;28.55;37.73;94768.03;6125613;28;109540;-64
2023/07/21 13:52:31;;;;;;;10.47;6.57;;;;;;;28.58;37.87;94774.66;6106527;28;109192;-64
2023/07/21 13:55:34;;;;;;;9.20;6.33;;;;;;;28.58;37.48;94780.03;6106682;28;109116;-64
2023/07/21 13:58:39;;;;;;;8.50;6.93;;;;;;;28.58;38.12;94777.34;6111991;28;109212;-65
2023/07/21 14:01:42;;;;;;;7.07;6.37;;;;;;;28.60;37.65;94772.38;6112256;28;109179;-65
2023/07/21 14:04:45;;;;;;;8.70;6.90;;;;;;;28.62;38.06;94768.22;6114209;28;110259;-65
2023/07/21 14:07:48;;;;;;;7.63;6.30;;;;;;;28.58;38.48;94780.81;6135857;28;109127;-65
2023/07/21 14:10:52;;;;;;;7.10;6.40;;;;;;;28.57;38.30;94770.41;6115036;28;109301;-65
2023/07/21 14:13:57;;;;;;;11.27;6.20;;;;;;;28.55;38.32;94772.66;6112278;28;109059;-65
2023/07/21 14:17:00;;;;;;;7.00;6.30;;;;;;;28.60;36.99;94769.69;6100633;28;109296;-64